Time;durP1;ratioP1;P1;durP2;ratioP2;P2;SDS_P1;SDS_P2;PMS_P1;PMS_P2;Temp;Humidity;BMP_temperature;BMP_pressure;BME280_temperature;BME280_humidity;BME280_pressure;Samples;Min_cycle;Max_cycle;Signal;HPM_P1;HPM_P2
2021/06/08 00:02:25;;;;;;;2.83;1.08;;;16.60;99.90;;;;;;5109736;28;20031;-73
2021/06/08 00:04:53;;;;;;;2.00;1.05;;;16.60;99.90;;;;;;5101776;28;20028;-73
2021/06/08 00:07:19;;;;;;;1.60;1.02;;;16.30;99.90;;;;;;5098442;28;20039;-73
2021/06/08 00:09:45;;;;;;;3.08;1.10;;;16.40;99.90;;;;;;5107819;28;20024;-73
2021/06/08 00:12:11;;;;;;;2.33;0.93;;;16.50;99.90;;;;;;5090271;28;20024;-73
2021/06/08 00:14:37;;;;;;;3.72;0.98;;;16.50;99.90;;;;;;5095643;28;20077;-73
2021/06/08 00:17:03;;;;;;;2.20;0.90;;;16.50;99.90;;;;;;5091917;28;20520;-72
2021/06/08 00:19:30;;;;;;;2.85;1.30;;;16.40;99.90;;;;;;5097865;28;20036;-72
2021/06/08 00:21:56;;;;;;;6.22;1.35;;;16.50;99.90;;;;;;5106254;28;20036;-73
2021/06/08 00:24:22;;;;;;;3.40;1.10;;;16.40;99.90;;;;;;5106995;28;20024;-72
2021/06/08 00:26:49;;;;;;;2.85;0.98;;;16.60;99.90;;;;;;5092127;28;20451;-72
2021/06/08 00:29:15;;;;;;;4.25;1.10;;;16.60;99.90;;;;;;5088887;28;20032;-72
2021/06/08 00:31:43;;;;;;;1.92;1.13;;;16.60;99.90;;;;;;5096457;28;20385;-73
2021/06/08 00:34:09;;;;;;;1.83;0.82;;;16.80;99.90;;;;;;5097868;28;20023;-73
2021/06/08 00:36:36;;;;;;;2.90;1.10;;;16.70;99.90;;;;;;5086362;28;20120;-73
2021/06/08 00:39:03;;;;;;;3.53;0.95;;;16.80;99.90;;;;;;5093423;28;20035;-72
2021/06/08 00:41:35;;;;;;;3.83;1.38;;;16.70;99.90;;;;;;5094307;28;20031;-72
2021/06/08 00:44:02;;;;;;;2.13;0.93;;;16.60;99.90;;;;;;5088260;28;20020;-72
2021/06/08 00:46:29;;;;;;;3.42;1.45;;;16.50;99.90;;;;;;5091573;28;20137;-73
2021/06/08 00:48:55;;;;;;;3.72;1.30;;;16.50;99.90;;;;;;5089951;28;20031;-73
2021/06/08 00:51:21;;;;;;;2.65;1.27;;;16.70;99.90;;;;;;5108955;28;20036;-72
2021/06/08 00:53:47;;;;;;;3.45;0.98;;;16.70;99.90;;;;;;5097530;28;20455;-73
2021/06/08 00:56:13;;;;;;;2.20;1.08;;;16.80;99.90;;;;;;5095551;28;20031;-72
2021/06/08 00:58:39;;;;;;;3.03;1.17;;;16.70;99.90;;;;;;5089841;28;20486;-72
2021/06/08 01:01:05;;;;;;;3.15;1.10;;;16.70;99.90;;;;;;5089805;27;20050;-72
2021/06/08 01:03:32;;;;;;;2.92;1.33;;;16.70;99.90;;;;;;5104089;28;20032;-73
2021/06/08 01:05:59;;;;;;;2.65;1.08;;;16.80;99.90;;;;;;5092436;28;20137;-73
2021/06/08 01:08:25;;;;;;;3.25;1.27;;;16.60;99.90;;;;;;5104735;28;20024;-73
2021/06/08 01:10:50;;;;;;;3.22;1.30;;;16.60;99.90;;;;;;5094495;28;20020;-72
2021/06/08 01:13:16;;;;;;;3.50;1.20;;;16.60;99.90;;;;;;5099177;28;20061;-72
2021/06/08 01:15:42;;;;;;;2.83;1.00;;;16.60;99.90;;;;;;5098262;28;20062;-73
2021/06/08 01:18:08;;;;;;;3.60;1.33;;;16.60;99.90;;;;;;5109613;28;20032;-73
2021/06/08 01:20:35;;;;;;;2.35;1.10;;;16.40;99.90;;;;;;5101554;28;20030;-73
2021/06/08 01:23:00;;;;;;;3.88;1.35;;;16.30;99.90;;;;;;5104035;28;20072;-73
2021/06/08 01:25:26;;;;;;;4.43;1.35;;;16.30;99.90;;;;;;5106690;28;20028;-72
2021/06/08 01:27:52;;;;;;;2.47;1.20;;;16.40;99.90;;;;;;5090408;28;20098;-72
2021/06/08 01:30:20;;;;;;;2.95;1.40;;;16.40;99.90;;;;;;5099195;28;20024;-72
2021/06/08 01:32:46;;;;;;;3.95;1.08;;;16.40;99.90;;;;;;5088533;28;20082;-73
2021/06/08 01:35:13;;;;;;;3.05;1.40;;;16.50;99.90;;;;;;5088465;28;20508;-72
2021/06/08 01:37:40;;;;;;;2.92;1.35;;;16.60;99.90;;;;;;5088380;28;20116;-73
2021/06/08 01:40:08;;;;;;;2.22;1.40;;;16.60;99.90;;;;;;5088187;28;20523;-72
2021/06/08 01:42:35;;;;;;;6.22;1.52;;;16.70;99.90;;;;;;5089688;28;20017;-73
2021/06/08 01:45:01;;;;;;;4.80;1.58;;;16.70;99.90;;;;;;5103524;28;20028;-72
2021/06/08 01:47:26;;;;;;;4.28;1.35;;;16.50;99.90;;;;;;5098274;28;20076;-72
2021/06/08 01:49:52;;;;;;;2.33;1.48;;;16.50;99.90;;;;;;5109466;28;20020;-72
2021/06/08 01:52:17;;;;;;;3.10;1.45;;;16.50;99.90;;;;;;5096780;28;20101;-73
2021/06/08 01:55:01;;;;;;;2.47;1.13;;;16.30;99.90;;;;;;5103244;28;20027;-72
2021/06/08 01:57:49;;;;;;;3.03;1.20;;;16.20;99.90;;;;;;5096268;28;20051;-73
2021/06/08 02:00:28;;;;;;;3.13;1.27;;;16.00;99.90;;;;;;5100919;28;20545;-72
2021/06/08 02:03:00;;;;;;;2.63;1.08;;;16.00;99.90;;;;;;5093616;28;20060;-72
2021/06/08 02:05:53;;;;;;;2.10;1.13;;;15.90;99.90;;;;;;5090915;28;20032;-72
2021/06/08 02:08:30;;;;;;;3.35;1.65;;;16.00;99.90;;;;;;5100964;28;20066;-72
2021/06/08 02:11:26;;;;;;;3.65;1.30;;;16.00;99.90;;;;;;5106816;28;20106;-72
2021/06/08 02:14:00;;;;;;;2.08;1.00;;;16.20;99.90;;;;;;5077392;28;20119;-72
2021/06/08 02:16:38;;;;;;;2.05;1.10;;;16.20;99.90;;;;;;5104994;28;20054;-73
2021/06/08 02:19:06;;;;;;;2.42;1.17;;;16.10;99.90;;;;;;5086959;28;20044;-73
2021/06/08 02:21:45;;;;;;;3.58;1.23;;;16.10;99.90;;;;;;5104780;28;20036;-73
2021/06/08 02:24:16;;;;;;;2.63;1.23;;;16.20;99.90;;;;;;5099129;28;20065;-72
2021/06/08 02:26:42;;;;;;;4.00;1.38;;;16.00;99.90;;;;;;5087676;28;20028;-72
2021/06/08 02:29:09;;;;;;;2.70;1.38;;;15.90;99.90;;;;;;5099356;28;20023;-72
2021/06/08 02:31:35;;;;;;;4.25;1.15;;;15.80;99.90;;;;;;5100291;28;20065;-72
2021/06/08 02:34:03;;;;;;;4.38;1.45;;;15.60;99.90;;;;;;5091729;28;20028;-72
2021/06/08 02:36:29;;;;;;;3.75;1.50;;;15.60;99.90;;;;;;5094824;28;20470;-72
2021/06/08 02:38:56;;;;;;;2.60;1.17;;;15.60;99.90;;;;;;5100113;28;20028;-72
2021/06/08 02:41:23;;;;;;;4.07;2.28;;;15.60;99.90;;;;;;5085321;28;20020;-72
2021/06/08 02:43:51;;;;;;;9.50;1.80;;;15.60;99.90;;;;;;5088521;28;20032;-73
2021/06/08 02:46:18;;;;;;;4.30;1.33;;;15.60;99.90;;;;;;5087633;28;20106;-72
2021/06/08 02:48:45;;;;;;;2.22;1.20;;;15.60;99.90;;;;;;5099814;28;20027;-72
2021/06/08 02:51:12;;;;;;;3.88;1.88;;;15.60;99.90;;;;;;5104478;28;20080;-72
2021/06/08 02:53:39;;;;;;;2.70;1.33;;;15.70;99.90;;;;;;5094709;28;20440;-73
2021/06/08 02:56:06;;;;;;;4.38;1.40;;;15.70;99.90;;;;;;5098584;28;20067;-72
2021/06/08 02:58:33;;;;;;;2.80;1.35;;;15.90;99.90;;;;;;5094810;28;20417;-72
2021/06/08 03:00:59;;;;;;;3.30;1.58;;;16.10;99.90;;;;;;5088479;28;20098;-73
2021/06/08 03:03:32;;;;;;;4.63;1.40;;;16.20;99.90;;;;;;5087009;28;20115;-72
2021/06/08 03:06:09;;;;;;;2.97;1.38;;;16.30;99.90;;;;;;5088944;28;20072;-73
2021/06/08 03:08:59;;;;;;;3.78;1.58;;;16.30;99.90;;;;;;5101028;28;20039;-72
2021/06/08 03:11:52;;;;;;;4.03;1.48;;;16.40;99.90;;;;;;5103479;28;20057;-73
2021/06/08 03:14:20;;;;;;;3.50;1.38;;;16.50;99.90;;;;;;5090267;28;20027;-73
2021/06/08 03:16:57;;;;;;;4.70;1.33;;;16.40;99.90;;;;;;5103212;28;20393;-73
2021/06/08 03:19:29;;;;;;;3.00;1.30;;;16.20;99.90;;;;;;5083174;28;20054;-73
2021/06/08 03:21:59;;;;;;;5.93;1.67;;;16.20;99.90;;;;;;5084258;28;20035;-72
2021/06/08 03:24:31;;;;;;;5.15;1.92;;;16.10;99.90;;;;;;5091302;28;20020;-72
2021/06/08 03:26:58;;;;;;;4.07;1.70;;;16.10;99.90;;;;;;5102592;28;20026;-72
2021/06/08 03:29:25;;;;;;;4.20;1.63;;;16.00;99.90;;;;;;5088206;28;20020;-72
2021/06/08 03:31:52;;;;;;;3.75;1.50;;;15.80;99.90;;;;;;5097971;28;20038;-72
2021/06/08 03:34:18;;;;;;;2.30;1.25;;;15.70;99.90;;;;;;5083636;28;20028;-73
2021/06/08 03:36:48;;;;;;;4.32;1.13;;;15.60;99.90;;;;;;5092072;28;20032;-73
2021/06/08 03:39:15;;;;;;;3.42;1.42;;;15.60;99.90;;;;;;5086350;28;20077;-73
2021/06/08 03:41:42;;;;;;;3.20;1.38;;;15.60;99.90;;;;;;5084655;28;20404;-73
2021/06/08 03:44:08;;;;;;;2.78;1.58;;;15.70;99.90;;;;;;5094062;28;20028;-73
2021/06/08 03:46:35;;;;;;;2.88;1.10;;;15.70;99.90;;;;;;5091529;28;20031;-73
2021/06/08 03:49:02;;;;;;;3.42;1.67;;;15.70;99.90;;;;;;5093845;28;20420;-73
2021/06/08 03:51:29;;;;;;;3.78;1.50;;;15.80;99.90;;;;;;5097802;28;20081;-73
2021/06/08 03:53:55;;;;;;;3.85;1.40;;;16.00;99.90;;;;;;5099966;28;20046;-72
2021/06/08 03:56:22;;;;;;;3.20;1.70;;;15.90;99.90;;;;;;5102343;28;20089;-72
2021/06/08 03:58:50;;;;;;;2.53;1.35;;;15.70;99.90;;;;;;5090948;28;20039;-72
2021/06/08 04:01:17;;;;;;;3.35;1.50;;;15.60;99.90;;;;;;5099112;28;20089;-72
2021/06/08 04:03:44;;;;;;;2.47;1.15;;;15.60;99.90;;;;;;5098413;28;20027;-72
2021/06/08 04:06:09;;;;;;;2.85;1.52;;;15.80;99.90;;;;;;5101975;28;20111;-73
2021/06/08 04:08:35;;;;;;;2.25;1.08;;;16.00;99.90;;;;;;5087687;28;20458;-73
2021/06/08 04:11:01;;;;;;;3.10;1.40;;;15.70;99.90;;;;;;5099828;28;20028;-72
2021/06/08 04:13:26;;;;;;;3.30;1.33;;;15.80;99.90;;;;;;5100406;28;20073;-73
2021/06/08 04:15:53;;;;;;;3.28;1.20;;;15.90;99.90;;;;;;5104495;28;20056;-73
2021/06/08 04:18:20;;;;;;;2.58;1.50;;;15.90;99.90;;;;;;5098938;28;20035;-72
2021/06/08 04:20:47;;;;;;;3.83;1.38;;;16.00;99.90;;;;;;5093700;28;20019;-73
2021/06/08 04:23:14;;;;;;;2.53;1.40;;;15.90;99.90;;;;;;5095422;28;20028;-72
2021/06/08 04:25:39;;;;;;;4.00;1.50;;;16.00;99.90;;;;;;5084319;28;20493;-72
2021/06/08 04:28:05;;;;;;;4.05;1.50;;;15.90;99.90;;;;;;5093116;28;20020;-72
2021/06/08 04:30:31;;;;;;;2.38;1.10;;;15.80;99.90;;;;;;5100073;28;20501;-73
2021/06/08 04:32:57;;;;;;;5.88;1.60;;;15.80;99.90;;;;;;5085990;28;20477;-72
2021/06/08 04:35:23;;;;;;;3.72;1.60;;;16.00;99.90;;;;;;5086818;28;20033;-72
2021/06/08 04:37:49;;;;;;;3.28;1.60;;;15.90;99.90;;;;;;5091634;28;20044;-72
2021/06/08 04:40:17;;;;;;;3.53;1.63;;;15.90;99.90;;;;;;5106202;28;20035;-73
2021/06/08 04:42:46;;;;;;;4.03;1.50;;;15.80;99.90;;;;;;5094509;28;20032;-73
2021/06/08 04:45:13;;;;;;;5.35;1.63;;;15.70;99.90;;;;;;5107796;27;20051;-72
2021/06/08 04:47:39;;;;;;;4.68;1.38;;;15.60;99.90;;;;;;5088799;28;20032;-73
2021/06/08 04:50:07;;;;;;;3.97;1.95;;;15.80;99.90;;;;;;5087206;28;20024;-72
2021/06/08 04:52:33;;;;;;;7.28;1.83;;;15.90;99.90;;;;;;5095128;28;20024;-72
2021/06/08 04:54:59;;;;;;;4.57;1.52;;;15.90;99.90;;;;;;5107612;28;20027;-72
2021/06/08 04:57:25;;;;;;;3.60;1.83;;;15.90;99.90;;;;;;5105002;28;20062;-73
2021/06/08 04:59:51;;;;;;;4.68;1.70;;;16.00;99.90;;;;;;5087004;28;20452;-72
2021/06/08 05:02:36;;;;;;;4.22;1.88;;;16.20;99.90;;;;;;5093058;28;20024;-72
2021/06/08 05:05:09;;;;;;;2.30;1.05;;;16.40;99.90;;;;;;5095949;28;20026;-73
2021/06/08 05:07:41;;;;;;;3.55;1.60;;;16.40;99.90;;;;;;5088248;28;20415;-73
2021/06/08 05:10:11;;;;;;;5.22;1.85;;;16.60;99.90;;;;;;5093116;28;20077;-73
2021/06/08 05:12:42;;;;;;;3.70;1.90;;;16.70;99.90;;;;;;5099070;28;20020;-72
2021/06/08 05:15:10;;;;;;;3.53;1.55;;;16.80;99.90;;;;;;5091487;28;20106;-72
2021/06/08 05:17:37;;;;;;;4.85;1.73;;;16.90;99.90;;;;;;5097879;28;20040;-72
2021/06/08 05:20:03;;;;;;;6.63;2.38;;;16.90;99.90;;;;;;5088911;28;20043;-73
2021/06/08 05:22:32;;;;;;;6.60;1.70;;;17.00;99.90;;;;;;5091694;28;20027;-73
2021/06/08 05:24:58;;;;;;;7.82;1.83;;;17.00;99.90;;;;;;5093521;28;20115;-73
2021/06/08 05:27:25;;;;;;;3.80;1.70;;;17.10;99.90;;;;;;5101157;28;20107;-73
2021/06/08 05:29:58;;;;;;;3.85;1.48;;;17.10;99.90;;;;;;5101559;28;20050;-73
2021/06/08 05:32:24;;;;;;;3.92;2.13;;;17.20;99.90;;;;;;5088919;28;20073;-73
2021/06/08 05:34:50;;;;;;;6.82;1.88;;;17.30;99.90;;;;;;5098603;28;20067;-72
2021/06/08 05:37:17;;;;;;;5.68;1.92;;;17.40;99.90;;;;;;5089004;28;20177;-73
2021/06/08 05:39:44;;;;;;;7.13;1.95;;;17.40;99.90;;;;;;5093101;28;20085;-73
2021/06/08 05:42:16;;;;;;;5.28;1.90;;;17.40;99.90;;;;;;5086554;28;20055;-73
2021/06/08 05:44:42;;;;;;;3.20;1.60;;;17.50;99.90;;;;;;5087201;28;20070;-73
2021/06/08 05:47:08;;;;;;;3.45;1.95;;;17.60;99.90;;;;;;5086054;28;20032;-73
2021/06/08 05:49:37;;;;;;;6.28;2.05;;;17.80;99.90;;;;;;5086245;28;20929;-73
2021/06/08 05:52:05;;;;;;;6.85;1.80;;;18.00;99.90;;;;;;5091216;28;20019;-73
2021/06/08 05:54:32;;;;;;;2.58;1.35;;;18.20;99.90;;;;;;5103727;28;20036;-73
2021/06/08 05:56:59;;;;;;;7.78;1.58;;;18.10;99.90;;;;;;5100905;28;20032;-73
2021/06/08 05:59:25;;;;;;;4.32;1.75;;;18.20;99.90;;;;;;5086050;28;20051;-73
2021/06/08 06:01:52;;;;;;;5.32;1.73;;;18.30;99.90;;;;;;5089261;28;20100;-73
2021/06/08 06:04:21;;;;;;;3.38;1.70;;;18.40;99.90;;;;;;5096829;28;20565;-73
2021/06/08 06:06:48;;;;;;;5.60;1.83;;;18.40;99.90;;;;;;5088683;28;20059;-75
2021/06/08 06:09:16;;;;;;;11.95;1.95;;;18.50;99.90;;;;;;5104247;28;20032;-76
2021/06/08 06:11:46;;;;;;;3.00;1.63;;;18.50;99.90;;;;;;5087377;28;20036;-77
2021/06/08 06:14:14;;;;;;;3.92;1.67;;;18.50;99.90;;;;;;5085646;28;20078;-73
2021/06/08 06:16:45;;;;;;;3.05;1.63;;;18.60;99.90;;;;;;5089050;28;20040;-76
2021/06/08 06:19:12;;;;;;;8.02;2.38;;;18.60;99.90;;;;;;5106044;28;20081;-73
2021/06/08 06:21:39;;;;;;;3.65;1.85;;;18.60;99.90;;;;;;5087013;28;20059;-73
2021/06/08 06:24:09;;;;;;;7.68;2.05;;;18.60;99.90;;;;;;5105099;28;20489;-73
2021/06/08 06:26:35;;;;;;;3.20;1.88;;;18.60;99.90;;;;;;5086159;28;20085;-73
2021/06/08 06:29:04;;;;;;;6.65;2.60;;;18.50;99.90;;;;;;5083392;28;20115;-73
2021/06/08 06:31:31;;;;;;;4.50;2.42;;;18.40;99.90;;;;;;5095239;28;20028;-73
2021/06/08 06:33:58;;;;;;;4.85;2.05;;;18.40;99.90;;;;;;5105185;28;20023;-73
2021/06/08 06:36:30;;;;;;;3.05;1.67;;;18.60;99.90;;;;;;5092101;28;20047;-74
2021/06/08 06:39:10;;;;;;;4.28;2.10;;;18.70;99.90;;;;;;5094371;28;20030;-73
2021/06/08 06:41:46;;;;;;;6.03;2.45;;;18.80;99.90;;;;;;5105225;28;20024;-73
2021/06/08 06:44:14;;;;;;;3.88;2.03;;;18.90;99.90;;;;;;5103764;28;20031;-73
2021/06/08 06:46:40;;;;;;;4.40;1.83;;;18.90;99.90;;;;;;5099573;28;20491;-73
2021/06/08 06:49:07;;;;;;;8.13;1.95;;;19.00;99.90;;;;;;5089903;28;20033;-73
2021/06/08 06:51:35;;;;;;;4.97;1.83;;;19.10;99.90;;;;;;5103931;28;20633;-73
2021/06/08 06:54:02;;;;;;;4.90;1.77;;;19.10;99.90;;;;;;5104661;28;20508;-73
2021/06/08 06:56:29;;;;;;;3.63;1.88;;;19.30;99.90;;;;;;5102138;28;20038;-73
2021/06/08 06:58:56;;;;;;;5.82;2.00;;;19.30;99.90;;;;;;5094754;28;20451;-74
2021/06/08 07:01:24;;;;;;;4.60;1.70;;;19.50;99.90;;;;;;5093913;28;20136;-75
2021/06/08 07:03:56;;;;;;;5.82;2.00;;;19.50;99.90;;;;;;5103052;28;20026;-74
2021/06/08 07:06:23;;;;;;;10.50;2.25;;;19.60;99.90;;;;;;5087143;28;20028;-74
2021/06/08 07:08:54;;;;;;;4.88;1.70;;;19.60;99.90;;;;;;5083191;28;20107;-74
2021/06/08 07:11:21;;;;;;;15.15;3.17;;;19.80;99.90;;;;;;5104701;28;20028;-73
2021/06/08 07:13:48;;;;;;;19.65;3.40;;;20.00;99.90;;;;;;5101919;28;20023;-74
2021/06/08 07:16:23;;;;;;;5.00;2.00;;;20.10;99.90;;;;;;5085185;28;20660;-77
2021/06/08 07:19:03;;;;;;;5.93;1.63;;;20.20;99.90;;;;;;5084411;28;20031;-74
2021/06/08 07:21:34;;;;;;;4.15;1.80;;;20.40;99.90;;;;;;5099989;28;20138;-73
2021/06/08 07:24:05;;;;;;;3.63;2.05;;;20.50;99.90;;;;;;5103842;28;20149;-75
2021/06/08 07:26:33;;;;;;;5.07;2.03;;;20.40;99.90;;;;;;5086541;28;20039;-76
2021/06/08 07:29:09;;;;;;;10.38;2.47;;;20.20;99.90;;;;;;5088456;28;20042;-77
2021/06/08 07:32:18;;;;;;;5.57;2.50;;;20.10;99.90;;;;;;5103112;28;20039;-74
2021/06/08 07:35:12;;;;;;;5.03;2.25;;;20.30;99.90;;;;;;5106017;27;20053;-73
2021/06/08 07:37:50;;;;;;;5.65;2.22;;;20.30;99.90;;;;;;5086748;28;20113;-74
2021/06/08 07:40:33;;;;;;;4.75;2.25;;;20.40;99.90;;;;;;5096859;28;20028;-72
2021/06/08 07:43:06;;;;;;;3.72;2.10;;;20.40;99.90;;;;;;5103211;28;20036;-73
2021/06/08 07:45:49;;;;;;;5.22;2.22;;;20.40;99.90;;;;;;5083506;28;20517;-73
2021/06/08 07:48:22;;;;;;;4.10;2.00;;;20.40;99.90;;;;;;5086879;28;20023;-74
2021/06/08 07:51:02;;;;;;;7.32;2.67;;;20.40;99.90;;;;;;5083245;28;20612;-75
2021/06/08 07:53:32;;;;;;;5.38;2.80;;;20.60;99.90;;;;;;5082607;28;20047;-76
2021/06/08 07:56:00;;;;;;;5.30;2.33;;;20.70;99.90;;;;;;5098978;28;20122;-74
2021/06/08 07:58:37;;;;;;;9.20;2.53;;;20.60;99.90;;;;;;5085070;28;20119;-75
2021/06/08 08:01:21;;;;;;;7.22;2.65;;;20.60;99.90;;;;;;5097213;28;20086;-73
2021/06/08 08:03:57;;;;;;;5.82;1.90;;;20.70;99.90;;;;;;5082924;28;20053;-74
2021/06/08 08:06:50;;;;;;;6.15;2.45;;;20.70;99.90;;;;;;5084022;28;20036;-74
2021/06/08 08:09:42;;;;;;;4.90;2.30;;;20.70;99.90;;;;;;5096368;28;20041;-73
2021/06/08 08:12:14;;;;;;;3.63;2.00;;;20.90;99.90;;;;;;5105478;28;20022;-73
2021/06/08 08:15:06;;;;;;;11.93;2.35;;;21.10;99.90;;;;;;5106932;28;20378;-77
2021/06/08 08:17:36;;;;;;;5.15;2.67;;;21.20;99.90;;;;;;5105844;28;20558;-73
2021/06/08 08:20:09;;;;;;;7.13;2.28;;;21.20;99.90;;;;;;5089368;28;20023;-75
2021/06/08 08:22:36;;;;;;;9.23;2.70;;;21.60;99.90;;;;;;5079839;28;20081;-74
2021/06/08 08:25:13;;;;;;;4.80;2.35;;;21.20;99.90;;;;;;5106062;28;20026;-74
2021/06/08 08:28:14;;;;;;;4.80;2.53;;;21.20;99.90;;;;;;5091162;28;20036;-73
2021/06/08 08:31:01;;;;;;;5.93;2.33;;;21.30;99.90;;;;;;5086411;28;20040;-73
2021/06/08 08:33:34;;;;;;;7.13;2.35;;;21.30;99.90;;;;;;5088049;28;20028;-75
2021/06/08 08:36:10;;;;;;;4.05;2.40;;;21.40;99.90;;;;;;5099667;28;20044;-74
2021/06/08 08:39:00;;;;;;;5.90;2.70;;;21.50;99.90;;;;;;5101138;28;20456;-76
2021/06/08 08:41:28;;;;;;;6.82;2.45;;;21.70;99.90;;;;;;5090860;28;20028;-73
2021/06/08 08:43:57;;;;;;;5.47;2.38;;;21.80;99.90;;;;;;5071374;28;20040;-73
2021/06/08 08:46:30;;;;;;;4.18;2.75;;;21.70;99.90;;;;;;5087724;28;20040;-74
2021/06/08 08:49:10;;;;;;;6.18;2.30;;;21.90;99.90;;;;;;5107226;28;20593;-74
2021/06/08 08:51:43;;;;;;;16.20;2.88;;;22.90;99.90;;;;;;5088979;28;20044;-73
2021/06/08 08:54:18;;;;;;;4.18;2.22;;;23.20;99.90;;;;;;5088417;28;20043;-74
2021/06/08 08:56:53;;;;;;;4.50;2.90;;;23.20;99.40;;;;;;5102305;28;20060;-75
2021/06/08 08:59:24;;;;;;;6.40;2.45;;;23.60;99.90;;;;;;5084817;28;20231;-74
2021/06/08 09:02:05;;;;;;;4.22;2.40;;;23.80;99.90;;;;;;5089700;28;20496;-74
2021/06/08 09:04:55;;;;;;;6.28;2.63;;;23.60;99.90;;;;;;5086916;28;20075;-74
2021/06/08 09:07:42;;;;;;;6.80;2.33;;;23.60;99.90;;;;;;5089709;28;20047;-74
2021/06/08 09:10:23;;;;;;;3.90;1.90;;;23.30;99.90;;;;;;5083529;28;20660;-74
2021/06/08 09:13:28;;;;;;;4.85;2.30;;;23.10;99.90;;;;;;5096965;28;20525;-74
2021/06/08 09:16:09;;;;;;;7.00;2.70;;;23.40;99.90;;;;;;5102433;28;20517;-75
2021/06/08 09:19:19;;;;;;;6.95;2.42;;;23.20;99.90;;;;;;5086871;28;20036;-74
2021/06/08 09:22:24;;;;;;;5.15;2.13;;;23.50;99.90;;;;;;5087284;28;20040;-74
2021/06/08 09:24:56;;;;;;;3.83;2.45;;;24.00;99.90;;;;;;5083673;28;20061;-74
2021/06/08 09:27:56;;;;;;;10.07;2.75;;;24.40;99.50;;;;;;5085977;28;20028;-74
2021/06/08 09:30:43;;;;;;;4.93;2.20;;;24.80;99.50;;;;;;5087555;28;20047;-74
2021/06/08 09:33:49;;;;;;;6.40;2.28;;;24.70;99.90;;;;;;5100472;28;20043;-75
2021/06/08 09:36:39;;;;;;;5.70;2.60;;;24.40;98.40;;;;;;5102399;28;20584;-74
2021/06/08 09:39:10;;;;;;;5.28;2.17;;;24.20;98.40;;;;;;5089234;28;20039;-75
2021/06/08 09:41:50;;;;;;;5.43;2.10;;;24.30;99.10;;;;;;5084461;28;20024;-75
2021/06/08 09:44:26;;;;;;;4.32;2.15;;;24.10;99.00;;;;;;5085891;28;20036;-75
2021/06/08 09:46:55;;;;;;;5.45;2.55;;;23.70;99.10;;;;;;5104152;28;20357;-75
2021/06/08 09:49:35;;;;;;;5.32;2.33;;;23.70;99.70;;;;;;5104899;28;20049;-75
2021/06/08 09:52:25;;;;;;;4.65;2.13;;;23.80;99.60;;;;;;5068200;28;20048;-75
2021/06/08 09:54:58;;;;;;;7.10;2.50;;;24.00;99.40;;;;;;5071352;28;20129;-74
2021/06/08 09:57:32;;;;;;;4.00;2.17;;;24.00;99.90;;;;;;5084153;28;20051;-75
2021/06/08 10:00:10;;;;;;;3.33;2.00;;;24.10;99.10;;;;;;5084477;28;20386;-75
2021/06/08 10:03:04;;;;;;;5.10;2.55;;;24.10;98.80;;;;;;5093189;28;20031;-75
2021/06/08 10:05:36;;;;;;;4.03;2.47;;;24.20;98.90;;;;;;5081722;28;20040;-75
2021/06/08 10:08:21;;;;;;;7.38;2.58;;;24.10;98.70;;;;;;5087733;28;20023;-75
2021/06/08 10:10:59;;;;;;;6.80;2.38;;;24.20;98.70;;;;;;5088137;28;20127;-75
2021/06/08 10:13:57;;;;;;;6.43;2.40;;;24.10;98.60;;;;;;5078181;28;20040;-75
2021/06/08 10:16:29;;;;;;;3.97;2.40;;;24.10;99.20;;;;;;5084077;28;20055;-75
2021/06/08 10:19:38;;;;;;;8.57;2.25;;;24.20;99.40;;;;;;5084781;28;20063;-75
2021/06/08 10:22:40;;;;;;;3.63;2.47;;;23.90;98.80;;;;;;5095866;28;20024;-75
2021/06/08 10:25:11;;;;;;;4.00;2.63;;;23.90;98.60;;;;;;5046955;28;20041;-75
2021/06/08 10:27:37;;;;;;;6.72;2.15;;;24.00;98.20;;;;;;5077007;28;20101;-75
2021/06/08 10:30:06;;;;;;;3.80;2.38;;;24.30;98.60;;;;;;5098627;28;20027;-75
2021/06/08 10:32:37;;;;;;;4.30;1.98;;;24.90;98.80;;;;;;5093837;28;20046;-75
2021/06/08 10:35:07;;;;;;;7.35;2.25;;;25.00;97.00;;;;;;5100693;28;20538;-75
2021/06/08 10:37:34;;;;;;;3.83;2.53;;;25.40;96.70;;;;;;5091790;28;20036;-75
2021/06/08 10:40:00;;;;;;;3.65;1.95;;;25.80;96.70;;;;;;5065661;28;20074;-75
2021/06/08 10:42:28;;;;;;;4.18;2.20;;;25.70;97.20;;;;;;5094865;28;20012;-75
2021/06/08 10:45:10;;;;;;;6.00;2.92;;;25.70;96.80;;;;;;5084549;28;20040;-75
2021/06/08 10:47:52;;;;;;;3.92;2.17;;;25.50;97.00;;;;;;5085551;28;20497;-75
2021/06/08 10:50:28;;;;;;;5.45;2.40;;;25.30;96.60;;;;;;5090864;28;20026;-75
2021/06/08 10:52:56;;;;;;;5.60;2.30;;;25.30;96.40;;;;;;5097535;28;20031;-74
2021/06/08 10:55:34;;;;;;;3.22;1.95;;;25.30;97.20;;;;;;5084945;28;20020;-74
2021/06/08 10:58:01;;;;;;;6.75;2.45;;;25.30;95.70;;;;;;5089840;28;20035;-75
2021/06/08 11:00:57;;;;;;;3.30;1.95;;;25.70;96.70;;;;;;5105075;28;20034;-75
2021/06/08 11:03:53;;;;;;;4.63;1.98;;;25.60;94.40;;;;;;5100891;28;20062;-75
2021/06/08 11:06:49;;;;;;;3.08;1.65;;;26.30;93.20;;;;;;5084988;28;20062;-75
2021/06/08 11:09:27;;;;;;;3.20;1.70;;;26.70;93.70;;;;;;5085984;28;20028;-75
2021/06/08 11:11:55;;;;;;;3.95;2.10;;;26.50;92.20;;;;;;5090144;28;20027;-75
2021/06/08 11:15:15;;;;;;;5.28;2.28;;;26.70;93.00;;;;;;5097371;28;20094;-75
2021/06/08 11:17:37;;;;;;;6.93;2.65;;;26.90;92.70;;;;;;5079233;28;20071;-75
2021/06/08 11:20:03;;;;;;;3.17;1.90;;;26.70;91.60;;;;;;5082224;28;20541;-75
2021/06/08 11:22:34;;;;;;;5.50;1.88;;;26.90;92.70;;;;;;5103203;28;20027;-75
2021/06/08 11:25:05;;;;;;;3.65;1.60;;;26.70;91.10;;;;;;5085532;28;20036;-75
2021/06/08 11:27:54;;;;;;;3.65;2.00;;;26.50;90.30;;;;;;5082797;28;20928;-75
2021/06/08 11:30:32;;;;;;;4.82;2.33;;;27.00;91.30;;;;;;5087869;28;20073;-75
2021/06/08 11:33:01;;;;;;;4.35;1.92;;;26.90;93.00;;;;;;5089473;28;20032;-75
2021/06/08 11:35:52;;;;;;;4.65;2.38;;;26.80;91.80;;;;;;5082564;28;20035;-74
2021/06/08 11:38:24;;;;;;;3.70;1.92;;;26.30;89.20;;;;;;5084180;28;20071;-76
2021/06/08 11:40:59;;;;;;;5.20;2.13;;;26.90;89.00;;;;;;5088236;28;20038;-75
2021/06/08 11:43:24;;;;;;;2.80;1.55;;;27.00;89.60;;;;;;5101958;28;20053;-75
2021/06/08 11:46:17;;;;;;;2.85;1.58;;;27.10;89.50;;;;;;5103556;28;20039;-75
2021/06/08 11:48:48;;;;;;;3.80;2.10;;;28.00;88.70;;;;;;5083369;28;20023;-74
2021/06/08 11:51:23;;;;;;;5.97;2.08;;;28.10;87.70;;;;;;5083733;28;20035;-75
2021/06/08 11:54:10;;;;;;;3.80;1.65;;;27.70;87.00;;;;;;5084772;28;20107;-75
2021/06/08 11:56:49;;;;;;;2.80;1.60;;;27.70;86.50;;;;;;5094215;28;20088;-75
2021/06/08 11:59:17;;;;;;;3.05;1.65;;;27.50;83.60;;;;;;5088149;28;20051;-75
2021/06/08 12:01:49;;;;;;;2.58;1.55;;;27.20;85.60;;;;;;5102351;28;20036;-75
2021/06/08 12:04:16;;;;;;;4.10;1.65;;;26.90;86.30;;;;;;5104312;28;20135;-75
2021/06/08 12:07:03;;;;;;;4.80;2.05;;;26.70;87.10;;;;;;5084193;28;20062;-75
2021/06/08 12:09:47;;;;;;;4.60;1.50;;;26.60;85.20;;;;;;5082931;28;20019;-75
2021/06/08 12:12:16;;;;;;;4.18;1.58;;;27.00;87.10;;;;;;5092505;28;20510;-74
2021/06/08 12:14:48;;;;;;;6.93;1.50;;;26.90;82.40;;;;;;5083949;28;20048;-74
2021/06/08 12:17:14;;;;;;;3.05;1.77;;;27.30;84.90;;;;;;5090144;28;20044;-75
2021/06/08 12:19:43;;;;;;;4.13;1.75;;;27.80;84.70;;;;;;5104004;28;20039;-75
2021/06/08 12:22:29;;;;;;;2.58;1.42;;;28.10;83.20;;;;;;5084338;28;20075;-74
2021/06/08 12:25:08;;;;;;;4.25;1.90;;;28.10;80.10;;;;;;5066581;28;20570;-74
2021/06/08 12:27:45;;;;;;;3.38;1.13;;;28.20;79.30;;;;;;5081780;28;20035;-75
2021/06/08 12:30:30;;;;;;;4.80;1.63;;;28.10;77.60;;;;;;5083335;28;20643;-75
2021/06/08 12:33:17;;;;;;;3.00;1.58;;;28.60;79.10;;;;;;5086667;28;20023;-75
2021/06/08 12:35:43;;;;;;;4.43;1.60;;;28.60;81.40;;;;;;5103342;28;20089;-74
2021/06/08 12:38:22;;;;;;;3.28;2.03;;;28.90;81.30;;;;;;5092355;28;20024;-75
2021/06/08 12:41:10;;;;;;;4.20;2.00;;;28.90;85.80;;;;;;5082130;28;20040;-75
2021/06/08 12:43:52;;;;;;;4.20;2.13;;;28.80;87.90;;;;;;5095884;28;20047;-75
2021/06/08 12:46:28;;;;;;;5.50;2.00;;;28.50;87.90;;;;;;5091273;28;20883;-74
2021/06/08 12:49:11;;;;;;;4.35;1.98;;;28.20;87.90;;;;;;5098239;28;20024;-75
2021/06/08 12:51:46;;;;;;;6.43;2.20;;;28.30;89.00;;;;;;5081360;28;20098;-74
2021/06/08 12:54:48;;;;;;;5.05;2.03;;;28.00;88.40;;;;;;5083443;28;20043;-75
2021/06/08 12:57:31;;;;;;;2.90;2.13;;;28.00;89.70;;;;;;5096701;28;20044;-75
2021/06/08 13:00:04;;;;;;;3.53;2.10;;;27.90;90.30;;;;;;5087935;28;20347;-74
2021/06/08 13:02:30;;;;;;;4.57;2.10;;;28.30;90.10;;;;;;5095767;28;20534;-75
2021/06/08 13:05:03;;;;;;;4.10;2.20;;;28.20;88.10;;;;;;5085769;28;20026;-75
2021/06/08 13:07:30;;;;;;;4.00;2.03;;;27.60;87.00;;;;;;5095338;28;20030;-75
2021/06/08 13:10:03;;;;;;;3.55;2.33;;;27.90;88.10;;;;;;5103736;28;20028;-74
2021/06/08 13:12:49;;;;;;;6.68;2.28;;;28.00;88.40;;;;;;5094327;28;20066;-75
2021/06/08 13:15:18;;;;;;;5.47;2.00;;;28.20;88.50;;;;;;5099266;28;20035;-74
2021/06/08 13:18:07;;;;;;;4.38;2.40;;;28.40;89.90;;;;;;5095737;28;20415;-74